Time;durP1;ratioP1;P1;durP2;ratioP2;P2;SDS_P1;SDS_P2;PMS_P1;PMS_P2;Temp;Humidity;BMP_temperature;BMP_pressure;BME280_temperature;BME280_humidity;BME280_pressure;Samples;Min_cycle;Max_cycle;Signal;HPM_P1;HPM_P2
2022/10/04 00:02:25;;;;;;;2.28;1.13;;;20.60;70.50;;;;;;10355677;28;20132;-40
2022/10/04 00:07:29;;;;;;;3.10;1.50;;;20.50;70.50;;;;;;10351667;28;20469;-39
2022/10/04 00:12:35;;;;;;;3.28;1.33;;;20.60;70.40;;;;;;10352202;28;20129;-39
2022/10/04 00:17:38;;;;;;;2.85;1.50;;;20.50;70.60;;;;;;10346442;28;20117;-41
2022/10/04 00:23:19;;;;;;;2.75;1.20;;;20.50;70.50;;;;;;10368279;28;20085;-42
2022/10/04 00:28:31;;;;;;;4.28;1.13;;;20.60;70.40;;;;;;10338483;28;20110;-38
2022/10/04 00:33:36;;;;;;;;;;;20.50;70.60;;;;;;10361168;28;20089;-44
2022/10/04 00:38:38;;;;;;;4.05;1.67;;;20.50;70.50;;;;;;10370043;28;20300;-42
2022/10/04 00:43:45;;;;;;;3.88;1.65;;;20.40;70.40;;;;;;10361306;28;20070;-39
2022/10/04 00:48:49;;;;;;;3.33;1.48;;;20.50;70.50;;;;;;10359739;28;20479;-41
2022/10/04 00:54:04;;;;;;;3.80;1.00;;;20.50;70.50;;;;;;10358762;28;20129;-40
2022/10/04 00:59:26;;;;;;;1.55;0.93;;;20.50;70.50;;;;;;10381261;28;20077;-38
2022/10/04 01:04:35;;;;;;;2.88;0.88;;;20.50;70.60;;;;;;10364424;28;20135;-40
2022/10/04 01:09:45;;;;;;;2.00;1.05;;;20.50;70.40;;;;;;10358350;28;20050;-40
2022/10/04 01:14:54;;;;;;;2.33;1.00;;;20.60;70.10;;;;;;10361936;28;20108;-39
2022/10/04 01:19:57;;;;;;;1.85;1.15;;;20.50;70.50;;;;;;10367688;28;20499;-44
2022/10/04 01:25:00;;;;;;;5.07;0.88;;;20.50;70.50;;;;;;10352785;28;20078;-39
2022/10/04 01:30:07;;;;;;;3.75;1.10;;;20.60;70.20;;;;;;10362699;28;20501;-41
2022/10/04 01:35:12;;;;;;;3.08;1.10;;;20.60;70.10;;;;;;10370332;28;20052;-39
2022/10/04 01:40:15;;;;;;;2.25;0.90;;;20.60;70.10;;;;;;10352090;28;20491;-39
2022/10/04 01:45:23;;;;;;;2.25;0.95;;;20.50;70.30;;;;;;10351968;28;20113;-39
2022/10/04 01:50:31;;;;;;;1.95;0.90;;;20.50;70.30;;;;;;10363840;28;20133;-40
2022/10/04 01:55:37;;;;;;;2.83;1.20;;;20.50;70.20;;;;;;10361420;28;20529;-39
2022/10/04 02:00:43;;;;;;;2.42;1.15;;;20.60;70.00;;;;;;10368385;28;20085;-40
2022/10/04 02:05:52;;;;;;;4.15;1.40;;;20.60;70.00;;;;;;10376234;28;20053;-38
2022/10/04 02:10:56;;;;;;;1.70;1.08;;;20.60;70.00;;;;;;10351740;28;20050;-40
2022/10/04 02:15:59;;;;;;;2.67;1.00;;;20.50;69.90;;;;;;10359446;28;20081;-41
2022/10/04 02:21:01;;;;;;;2.42;1.50;;;20.50;70.20;;;;;;10363518;28;20041;-38
2022/10/04 02:26:06;;;;;;;1.55;0.90;;;20.50;70.20;;;;;;10364070;28;20145;-40
2022/10/04 02:36:29;;;;;;;2.30;0.85;;;20.40;70.20;;;;;;10365321;28;20049;-39
2022/10/04 02:41:37;;;;;;;2.53;0.88;;;20.40;70.30;;;;;;10346738;28;20145;-39
2022/10/04 02:46:46;;;;;;;2.75;1.13;;;20.40;70.30;;;;;;10367802;28;20127;-38
2022/10/04 02:51:53;;;;;;;3.55;1.40;;;20.40;70.30;;;;;;10357130;28;20509;-41
2022/10/04 02:56:57;;;;;;;1.40;0.95;;;20.40;70.10;;;;;;10345929;28;20053;-39
2022/10/04 03:02:01;;;;;;;1.05;0.75;;;20.40;70.40;;;;;;10356122;28;20060;-40
2022/10/04 03:07:08;;;;;;;3.20;1.13;;;20.40;70.30;;;;;;10351845;28;20475;-41
2022/10/04 03:12:13;;;;;;;3.28;1.00;;;20.40;70.20;;;;;;10354816;28;20038;-40
2022/10/04 03:17:16;;;;;;;2.55;1.13;;;20.40;70.20;;;;;;10358209;28;20050;-38
2022/10/04 03:22:19;;;;;;;1.95;1.10;;;20.40;70.30;;;;;;10351053;28;20054;-42
2022/10/04 03:27:25;;;;;;;;;;;20.40;70.40;;;;;;10364876;28;20134;-41
2022/10/04 03:32:29;;;;;;;2.35;1.00;;;20.30;70.50;;;;;;10352071;28;20325;-41
2022/10/04 03:37:34;;;;;;;1.15;0.90;;;20.30;70.60;;;;;;10381623;28;20054;-39
2022/10/04 03:42:39;;;;;;;2.55;1.05;;;20.30;70.20;;;;;;10349580;28;20141;-40
2022/10/04 03:47:47;;;;;;;2.00;1.20;;;20.20;70.50;;;;;;10354232;28;20439;-40
2022/10/04 03:52:53;;;;;;;5.40;2.60;;;20.10;70.90;;;;;;10367667;28;20077;-38
2022/10/04 03:57:57;;;;;;;2.65;1.10;;;20.10;70.70;;;;;;10356031;28;20050;-38
2022/10/04 04:03:03;;;;;;;1.70;0.85;;;20.20;71.20;;;;;;10361506;28;20129;-39
2022/10/04 04:08:13;;;;;;;3.53;1.40;;;20.20;70.50;;;;;;10357229;28;20050;-44
2022/10/04 04:13:23;;;;;;;1.90;1.02;;;20.20;70.60;;;;;;10353141;28;20042;-40
2022/10/04 04:18:29;;;;;;;3.10;1.23;;;20.10;70.40;;;;;;10348249;28;20093;-40
2022/10/04 04:23:34;;;;;;;2.65;1.30;;;20.20;70.20;;;;;;10360363;28;20184;-41
2022/10/04 04:28:42;;;;;;;6.50;1.10;;;20.20;70.30;;;;;;10337231;28;20498;-40
2022/10/04 04:33:48;;;;;;;1.23;0.80;;;20.10;70.60;;;;;;10341130;28;20065;-41
2022/10/04 04:44:18;;;;;;;2.72;1.23;;;20.10;69.80;;;;;;10343027;28;20061;-41
2022/10/04 04:49:21;;;;;;;2.83;1.20;;;20.00;71.00;;;;;;10342901;28;20101;-36
2022/10/04 04:54:25;;;;;;;2.72;1.13;;;20.00;71.10;;;;;;10342037;28;20050;-40
2022/10/04 04:59:28;;;;;;;2.70;1.20;;;20.10;70.50;;;;;;10346948;28;20082;-40
2022/10/04 05:04:30;;;;;;;4.07;1.80;;;20.20;70.20;;;;;;10365437;28;20108;-39
2022/10/04 05:09:34;;;;;;;3.08;1.30;;;20.10;70.60;;;;;;10348073;28;20073;-40
2022/10/04 05:14:44;;;;;;;2.20;1.23;;;19.60;72.50;;;;;;10349707;28;20104;-38
2022/10/04 05:19:47;;;;;;;5.95;2.38;;;19.60;72.10;;;;;;10358395;28;20145;-41
2022/10/04 05:24:50;;;;;;;;;;;19.20;72.50;;;;;;10364716;28;20676;-41
2022/10/04 05:30:02;;;;;;;3.92;1.80;;;19.20;73.20;;;;;;10362882;28;20016;-40
2022/10/04 05:35:15;;;;;;;6.15;1.77;;;19.30;73.20;;;;;;10355736;28;20135;-40
2022/10/04 05:40:29;;;;;;;2.85;1.48;;;19.80;72.00;;;;;;10353483;28;20126;-36
2022/10/04 05:45:32;;;;;;;3.03;1.30;;;19.90;71.30;;;;;;10344556;28;20042;-39
2022/10/04 05:50:39;;;;;;;3.05;1.15;;;19.90;71.30;;;;;;10350004;28;20084;-38
2022/10/04 05:55:51;;;;;;;4.30;2.65;;;20.00;71.30;;;;;;10356169;28;20080;-44
2022/10/04 06:01:07;;;;;;;;;;;20.00;70.90;;;;;;10347702;28;20058;-38
2022/10/04 06:06:18;;;;;;;2.75;1.30;;;20.00;71.10;;;;;;10358662;28;19972;-37
2022/10/04 06:11:37;;;;;;;1.73;1.10;;;20.00;70.80;;;;;;10360827;28;20077;-36
2022/10/04 06:16:55;;;;;;;3.15;1.10;;;20.00;70.90;;;;;;10349903;28;20057;-39
2022/10/04 06:22:10;;;;;;;4.60;2.60;;;20.00;70.70;;;;;;10360177;28;20050;-39
2022/10/04 06:27:17;;;;;;;4.07;1.70;;;19.90;70.60;;;;;;10352960;28;20052;-38
2022/10/04 06:33:04;;;;;;;3.53;2.00;;;20.00;70.80;;;;;;10353116;28;20416;-44
2022/10/04 06:38:57;;;;;;;6.45;2.75;;;19.90;70.80;;;;;;10297388;28;20402;-43
2022/10/04 06:44:18;;;;;;;7.65;2.45;;;20.00;70.70;;;;;;10324215;28;20133;-41
2022/10/04 06:49:34;;;;;;;6.10;2.58;;;20.00;70.80;;;;;;10347584;28;20133;-41
2022/10/04 06:54:55;;;;;;;5.10;2.50;;;19.90;70.90;;;;;;10350905;28;20522;-39
2022/10/04 07:00:05;;;;;;;3.92;2.33;;;20.00;70.80;;;;;;10352494;28;20141;-39
2022/10/04 07:05:17;;;;;;;3.13;1.60;;;20.00;70.70;;;;;;10348058;28;20046;-42
2022/10/04 07:10:29;;;;;;;5.72;1.50;;;20.10;70.70;;;;;;10354497;28;20137;-41
2022/10/04 07:15:43;;;;;;;9.57;3.33;;;20.00;70.70;;;;;;10357912;28;20081;-37
2022/10/04 07:20:48;;;;;;;6.60;2.53;;;19.70;70.40;;;;;;10353586;28;20079;-48
2022/10/04 07:25:55;;;;;;;14.48;5.10;;;20.00;70.50;;;;;;10369336;28;20077;-40
2022/10/04 07:31:02;;;;;;;8.68;2.92;;;19.70;70.20;;;;;;10355980;28;20433;-40
2022/10/04 07:36:10;;;;;;;16.60;5.78;;;19.60;72.40;;;;;;10351667;28;20042;-39
2022/10/04 07:41:20;;;;;;;10.05;2.72;;;19.40;72.60;;;;;;10351970;28;20082;-39
2022/10/04 07:46:43;;;;;;;8.35;3.88;;;19.60;72.70;;;;;;10351637;28;21016;-41
2022/10/04 07:51:54;;;;;;;;;;;19.10;74.30;;;;;;10343972;28;20141;-38
2022/10/04 07:57:00;;;;;;;13.77;5.60;;;18.50;76.60;;;;;;10362606;28;20024;-42
2022/10/04 08:02:15;;;;;;;7.18;4.45;;;18.00;77.10;;;;;;10353109;28;20050;-40
2022/10/04 08:07:26;;;;;;;5.32;2.50;;;19.20;73.90;;;;;;10360698;28;20066;-40
2022/10/04 08:12:37;;;;;;;11.23;3.15;;;18.60;76.10;;;;;;10354399;28;20129;-40
2022/10/04 08:17:50;;;;;;;6.07;3.30;;;19.20;73.90;;;;;;10344797;28;20483;-37
2022/10/04 08:23:07;;;;;;;9.10;2.83;;;19.60;72.40;;;;;;10347087;28;20144;-46
2022/10/04 08:33:56;;;;;;;18.00;8.27;;;17.30;81.70;;;;;;10322557;28;20046;-38
2022/10/04 08:39:00;;;;;;;13.82;9.27;;;17.90;78.70;;;;;;10344833;28;20081;-40
2022/10/04 08:44:34;;;;;;;12.23;6.03;;;17.20;81.80;;;;;;10347574;28;20041;-41
2022/10/04 08:49:56;;;;;;;11.40;6.85;;;18.20;80.20;;;;;;10357521;28;20445;-39
2022/10/04 08:55:21;;;;;;;10.60;5.95;;;17.80;80.70;;;;;;10347879;28;20520;-40
2022/10/04 09:00:38;;;;;;;18.95;5.22;;;17.50;82.30;;;;;;10370038;28;20435;-41
2022/10/04 09:06:10;;;;;;;19.77;7.00;;;18.40;78.00;;;;;;10357248;28;20138;-39
2022/10/04 09:11:42;;;;;;;10.40;4.43;;;17.40;84.30;;;;;;10355860;28;20430;-43
2022/10/04 09:16:46;;;;;;;9.05;4.00;;;17.30;83.20;;;;;;10352393;28;20209;-37
2022/10/04 09:22:17;;;;;;;8.48;3.88;;;19.30;75.30;;;;;;10359789;28;20053;-39
2022/10/04 09:27:43;;;;;;;11.98;3.97;;;19.40;73.40;;;;;;10346656;28;20121;-41
2022/10/04 09:33:13;;;;;;;16.45;5.18;;;20.00;71.20;;;;;;10358328;28;20049;-39
2022/10/04 09:38:49;;;;;;;11.15;3.83;;;19.00;76.60;;;;;;10349382;28;20477;-39
2022/10/04 09:44:23;;;;;;;14.75;7.22;;;19.50;73.00;;;;;;10345340;28;20097;-39
2022/10/04 09:49:46;;;;;;;6.80;4.03;;;18.40;78.90;;;;;;10352819;28;20115;-38
2022/10/04 09:54:55;;;;;;;;;;;18.60;80.40;;;;;;10352818;28;20652;-39
2022/10/04 10:00:20;;;;;;;12.95;6.88;;;18.40;79.60;;;;;;10374448;28;20008;-40
2022/10/04 10:05:41;;;;;;;8.27;5.20;;;17.70;81.60;;;;;;10352972;28;20038;-40
2022/10/04 10:16:30;;;;;;;9.75;3.75;;;19.00;77.80;;;;;;10350159;28;20054;-42
2022/10/04 10:21:45;;;;;;;10.35;4.15;;;19.70;75.20;;;;;;10364788;28;20132;-41
2022/10/04 10:27:06;;;;;;;13.02;4.32;;;20.00;72.20;;;;;;10357706;28;20505;-44
2022/10/04 10:32:50;;;;;;;9.48;6.03;;;18.10;80.40;;;;;;10357035;28;20053;-44
2022/10/04 10:38:30;;;;;;;8.02;3.58;;;19.10;76.10;;;;;;10344993;28;20054;-41
2022/10/04 10:43:45;;;;;;;11.30;5.95;;;19.30;74.80;;;;;;10348305;28;20045;-46
2022/10/04 10:49:24;;;;;;;17.45;9.55;;;18.30;78.50;;;;;;10362049;28;20088;-40
2022/10/04 10:54:59;;;;;;;14.40;6.28;;;18.30;80.10;;;;;;10353934;28;20127;-39
2022/10/04 11:00:39;;;;;;;15.60;7.90;;;19.60;74.70;;;;;;10348230;28;20104;-39
2022/10/04 11:06:09;;;;;;;10.80;5.05;;;19.40;76.20;;;;;;10367067;28;20084;-35
2022/10/04 11:11:48;;;;;;;17.13;6.50;;;19.60;75.30;;;;;;10357018;28;20038;-37
2022/10/04 11:17:19;;;;;;;13.68;6.47;;;18.80;79.70;;;;;;10344728;28;20054;-38
2022/10/04 11:23:11;;;;;;;8.52;4.60;;;18.50;79.70;;;;;;10364459;28;20084;-40
2022/10/04 11:28:21;;;;;;;9.60;5.50;;;19.10;79.00;;;;;;10347198;28;20045;-42
2022/10/04 11:33:55;;;;;;;8.13;3.97;;;20.20;72.80;;;;;;10353918;28;20060;-38
2022/10/04 11:39:29;;;;;;;16.15;6.68;;;19.80;74.50;;;;;;10345605;28;20050;-39
2022/10/04 11:45:05;;;;;;;20.67;7.97;;;19.50;73.00;;;;;;10338314;28;20116;-37
2022/10/04 11:50:23;;;;;;;13.43;7.47;;;18.80;78.20;;;;;;10355941;28;20069;-39
2022/10/04 11:55:53;;;;;;;10.63;4.93;;;19.80;75.60;;;;;;10358212;28;20136;-40
2022/10/04 12:01:30;;;;;;;5.18;3.65;;;20.30;73.50;;;;;;10359082;28;20112;-39
2022/10/04 12:06:47;;;;;;;12.82;4.60;;;20.00;74.40;;;;;;10369674;28;20140;-42
2022/10/04 12:18:11;;;;;;;8.88;2.70;;;20.50;72.50;;;;;;10354212;28;20234;-39
2022/10/04 12:23:52;;;;;;;7.30;3.00;;;21.00;71.10;;;;;;10359603;28;20476;-40
2022/10/04 12:29:23;;;;;;;6.85;3.08;;;21.30;70.30;;;;;;10349025;28;20064;-40
2022/10/04 12:34:32;;;;;;;7.60;2.92;;;21.30;69.90;;;;;;10349562;28;20161;-39
2022/10/04 12:39:52;;;;;;;5.22;3.45;;;21.10;71.00;;;;;;10381798;28;20135;-43
2022/10/04 12:45:25;;;;;;;4.57;2.38;;;21.40;68.20;;;;;;10362858;28;20419;-38
2022/10/04 12:50:43;;;;;;;7.00;2.75;;;21.50;69.60;;;;;;10357943;28;20129;-40
2022/10/04 12:56:10;;;;;;;6.10;3.20;;;21.20;70.40;;;;;;10347966;28;20069;-38
2022/10/04 13:01:22;;;;;;;12.25;6.07;;;21.60;69.40;;;;;;10345000;28;20120;-38
2022/10/04 13:06:37;;;;;;;10.65;5.10;;;21.20;70.50;;;;;;10361818;28;20498;-42
2022/10/04 13:12:01;;;;;;;11.43;6.15;;;21.20;70.20;;;;;;10355980;28;20046;-40
2022/10/04 13:17:12;;;;;;;6.28;3.38;;;21.10;71.50;;;;;;10358640;28;20058;-39
2022/10/04 13:22:32;;;;;;;11.90;5.80;;;21.70;69.30;;;;;;10373471;28;20464;-39
2022/10/04 13:27:44;;;;;;;8.65;3.92;;;21.40;70.60;;;;;;10354699;28;20121;-40
2022/10/04 13:32:56;;;;;;;7.53;3.17;;;21.90;68.90;;;;;;10348498;28;20117;-40
2022/10/04 13:38:20;;;;;;;3.97;2.25;;;22.00;68.40;;;;;;10352305;28;20570;-40
2022/10/04 13:43:40;;;;;;;4.10;2.67;;;22.20;67.60;;;;;;10371195;28;20053;-42
2022/10/04 13:49:11;;;;;;;10.32;3.90;;;22.30;67.80;;;;;;10355478;28;20045;-41
2022/10/04 13:59:48;;;;;;;3.78;2.70;;;22.20;67.60;;;;;;10343847;28;20062;-41
2022/10/04 14:05:23;;;;;;;7.22;4.38;;;22.10;68.30;;;;;;10353505;28;20049;-37
2022/10/04 14:10:46;;;;;;;9.25;3.83;;;22.00;68.70;;;;;;10347291;28;20161;-41
2022/10/04 14:16:00;;;;;;;;;;;21.80;70.50;;;;;;10345911;28;20096;-43
2022/10/04 14:21:21;;;;;;;4.60;3.13;;;21.50;70.80;;;;;;10359278;28;20436;-44
2022/10/04 14:27:01;;;;;;;9.75;6.32;;;21.60;70.70;;;;;;10356758;28;20042;-41
2022/10/04 14:32:34;;;;;;;10.48;5.93;;;21.10;72.70;;;;;;10347280;28;20054;-40
2022/10/04 14:38:12;;;;;;;2.25;1.95;;;20.70;76.50;;;;;;10353154;28;20067;-40
2022/10/04 14:43:48;;;;;;;6.15;3.72;;;21.60;71.80;;;;;;10350931;28;20054;-39
2022/10/04 14:49:11;;;;;;;10.48;6.43;;;21.40;72.30;;;;;;10298889;28;20042;-37
2022/10/04 14:54:27;;;;;;;6.43;4.13;;;21.00;74.30;;;;;;10367850;28;20049;-38
2022/10/04 14:59:54;;;;;;;4.43;1.90;;;21.60;72.90;;;;;;10348653;28;20050;-41
2022/10/04 15:05:30;;;;;;;3.45;2.35;;;21.30;72.70;;;;;;10362722;28;20114;-40
2022/10/04 15:10:36;;;;;;;4.35;2.40;;;21.40;72.30;;;;;;10366133;28;20046;-40
2022/10/04 15:15:58;;;;;;;8.63;5.15;;;20.60;76.50;;;;;;10362032;28;20428;-41
2022/10/04 15:21:06;;;;;;;9.05;4.57;;;20.50;77.00;;;;;;10350104;28;20065;-42
2022/10/04 15:26:41;;;;;;;10.93;4.57;;;20.90;75.70;;;;;;10351286;28;20072;-44
2022/10/04 15:31:57;;;;;;;3.65;2.25;;;21.10;74.80;;;;;;10353632;28;20237;-43
2022/10/04 15:37:06;;;;;;;5.20;3.00;;;21.30;73.70;;;;;;10353123;28;20430;-38
2022/10/04 15:42:14;;;;;;;5.68;2.50;;;21.10;74.90;;;;;;10355836;28;20058;-43
2022/10/04 15:47:24;;;;;;;9.55;5.80;;;21.30;72.80;;;;;;10357045;28;20061;-39
2022/10/04 15:53:03;;;;;;;10.13;6.13;;;20.50;77.80;;;;;;10349722;28;20054;-38
2022/10/04 15:58:24;;;;;;;10.60;4.03;;;20.00;79.90;;;;;;10356263;28;20082;-38
2022/10/04 16:03:39;;;;;;;7.30;5.70;;;20.70;77.20;;;;;;10367043;28;20077;-40
2022/10/04 16:09:13;;;;;;;3.80;2.17;;;20.40;79.70;;;;;;10362027;28;20073;-39
2022/10/04 16:14:29;;;;;;;5.93;3.53;;;20.10;81.30;;;;;;10355360;28;20089;-38
2022/10/04 16:19:51;;;;;;;4.85;3.47;;;20.70;78.30;;;;;;10333770;28;20486;-40
2022/10/04 16:24:55;;;;;;;10.90;5.00;;;20.20;79.80;;;;;;10340018;28;20042;-41
2022/10/04 16:30:04;;;;;;;4.68;2.65;;;20.70;77.90;;;;;;10349687;28;20050;-40
2022/10/04 16:35:17;;;;;;;4.95;3.75;;;20.30;80.10;;;;;;10352558;28;20180;-39
2022/10/04 16:40:32;;;;;;;9.02;4.18;;;20.40;79.70;;;;;;10349986;28;20053;-41
2022/10/04 16:46:05;;;;;;;6.63;2.50;;;19.90;82.10;;;;;;10357689;28;20052;-42
2022/10/04 16:51:47;;;;;;;6.45;2.22;;;20.10;81.00;;;;;;10360258;28;20490;-41
2022/10/04 16:57:10;;;;;;;;;;;20.20;80.60;;;;;;10364896;28;20083;-39
2022/10/04 17:02:46;;;;;;;2.45;1.83;;;20.00;80.30;;;;;;10345790;28;20272;-40
2022/10/04 17:08:06;;;;;;;5.50;2.25;;;19.80;80.10;;;;;;10357905;28;20073;-39
2022/10/04 17:13:23;;;;;;;3.58;1.70;;;19.80;80.60;;;;;;10347161;28;20103;-40
2022/10/04 17:18:31;;;;;;;2.70;1.60;;;19.70;82.00;;;;;;10350364;28;20054;-41
2022/10/04 17:23:58;;;;;;;3.67;1.50;;;18.70;85.10;;;;;;10359093;28;20132;-38
2022/10/04 17:29:06;;;;;;;4.95;1.73;;;18.60;86.40;;;;;;10363233;28;20553;-39
2022/10/04 17:34:20;;;;;;;5.25;1.60;;;18.70;84.40;;;;;;10336183;28;20181;-38
2022/10/04 17:39:43;;;;;;;3.03;1.30;;;18.10;87.70;;;;;;10338081;28;20314;-39
2022/10/04 17:44:55;;;;;;;;;;;18.40;88.50;;;;;;10347813;28;20065;-36
2022/10/04 17:55:27;;;;;;;4.28;1.85;;;18.50;88.60;;;;;;10363845;28;20050;-39
2022/10/04 18:00:53;;;;;;;3.88;1.67;;;18.50;86.80;;;;;;10358935;28;20057;-39
2022/10/04 18:05:57;;;;;;;6.55;4.95;;;18.10;90.00;;;;;;10343564;28;20430;-41
2022/10/04 18:11:05;;;;;;;5.47;1.40;;;18.10;89.80;;;;;;10358791;28;20037;-46
2022/10/04 18:16:14;;;;;;;5.18;2.20;;;18.30;89.00;;;;;;10355845;28;20045;-38
2022/10/04 18:21:26;;;;;;;4.97;2.30;;;18.00;90.60;;;;;;10350718;28;20483;-38
2022/10/04 18:26:32;;;;;;;5.40;2.83;;;18.10;90.10;;;;;;10343041;28;20046;-35
2022/10/04 18:31:39;;;;;;;15.10;6.82;;;19.60;85.50;;;;;;10350731;28;20097;-38
2022/10/04 18:36:53;;;;;;;9.02;1.63;;;18.90;86.40;;;;;;10356374;28;20495;-40
2022/10/04 18:42:07;;;;;;;2.95;1.80;;;18.40;88.00;;;;;;10360961;28;20062;-41
2022/10/04 18:47:19;;;;;;;3.33;1.05;;;19.10;85.30;;;;;;10355156;28;20077;-43
2022/10/04 18:52:37;;;;;;;2.67;1.27;;;18.80;86.20;;;;;;10368160;28;20046;-38
2022/10/04 19:03:07;;;;;;;3.13;1.60;;;19.40;81.30;;;;;;10319595;28;20073;-43
2022/10/04 19:08:20;;;;;;;2.90;1.20;;;19.00;84.30;;;;;;10359159;28;20050;-43
2022/10/04 19:13:32;;;;;;;5.50;1.92;;;19.40;83.50;;;;;;10355304;28;20047;-41
2022/10/04 19:18:46;;;;;;;4.32;1.98;;;19.60;83.50;;;;;;10354398;28;20085;-41
2022/10/04 19:24:14;;;;;;;4.07;1.45;;;19.60;83.90;;;;;;10345203;28;20046;-39
2022/10/04 19:29:29;;;;;;;3.72;1.40;;;18.90;86.20;;;;;;10328465;28;20416;-43
2022/10/04 19:34:45;;;;;;;5.10;1.30;;;19.00;86.60;;;;;;10345080;28;20065;-45
2022/10/04 19:39:56;;;;;;;2.83;1.15;;;19.00;85.20;;;;;;10344185;28;20064;-42
2022/10/04 19:45:14;;;;;;;3.10;1.13;;;18.60;86.60;;;;;;10367906;28;20046;-40
2022/10/04 19:50:20;;;;;;;2.42;0.93;;;18.50;85.60;;;;;;10352521;28;20514;-44
2022/10/04 19:55:26;;;;;;;1.75;0.88;;;18.70;83.90;;;;;;10335809;28;20046;-42
2022/10/04 20:00:30;;;;;;;2.53;1.25;;;18.00;87.40;;;;;;10337138;28;20677;-39
2022/10/04 20:05:32;;;;;;;2.08;1.00;;;19.40;81.60;;;;;;10348797;28;20471;-41
2022/10/04 20:10:35;;;;;;;2.53;1.17;;;18.90;84.40;;;;;;10334584;28;20081;-40
2022/10/04 20:15:45;;;;;;;4.60;1.10;;;18.50;85.80;;;;;;10361409;28;20124;-42
2022/10/04 20:21:09;;;;;;;2.78;1.02;;;19.20;83.20;;;;;;10338033;28;20101;-43
2022/10/04 20:26:50;;;;;;;2.72;0.73;;;18.20;88.40;;;;;;10347177;28;20088;-42
2022/10/04 20:31:53;;;;;;;4.45;1.48;;;18.00;88.30;;;;;;10338465;28;20128;-40
2022/10/04 20:36:55;;;;;;;4.43;1.10;;;18.30;86.60;;;;;;10359279;28;20078;-43
2022/10/04 20:42:21;;;;;;;2.67;1.27;;;17.80;89.80;;;;;;10338640;28;20085;-40
2022/10/04 20:47:38;;;;;;;4.30;2.42;;;18.70;84.50;;;;;;10358948;28;20403;-43
2022/10/04 20:52:45;;;;;;;4.70;1.08;;;17.90;87.90;;;;;;10348798;28;20046;-41
2022/10/04 20:57:46;;;;;;;2.58;1.48;;;19.10;81.70;;;;;;10360321;28;20541;-39
2022/10/04 21:02:50;;;;;;;2.53;1.67;;;18.90;82.10;;;;;;10350306;28;20046;-40
2022/10/04 21:08:13;;;;;;;3.72;1.45;;;18.10;86.00;;;;;;10362744;28;20049;-39
2022/10/04 21:13:40;;;;;;;2.20;1.40;;;18.20;84.20;;;;;;10356420;28;20161;-43
2022/10/04 21:18:43;;;;;;;1.35;1.00;;;18.60;84.40;;;;;;10384651;28;20089;-41
2022/10/04 21:23:45;;;;;;;2.45;1.00;;;18.40;83.70;;;;;;10355555;28;20042;-40
2022/10/04 21:28:47;;;;;;;1.83;1.20;;;18.20;86.90;;;;;;10378118;28;20046;-39
2022/10/04 21:33:50;;;;;;;3.03;1.15;;;18.30;86.30;;;;;;10371068;28;20054;-40
2022/10/04 21:38:53;;;;;;;3.95;1.15;;;18.00;87.90;;;;;;10365051;28;20153;-38
2022/10/04 21:43:54;;;;;;;2.58;1.10;;;18.90;84.10;;;;;;10358485;28;20066;-40
2022/10/04 21:48:58;;;;;;;3.30;1.20;;;18.30;87.00;;;;;;10357352;28;20483;-40
2022/10/04 21:54:00;;;;;;;2.53;1.20;;;18.60;84.70;;;;;;10366137;28;20489;-40
2022/10/04 21:59:01;;;;;;;1.17;1.00;;;18.20;87.60;;;;;;10362394;28;20133;-43
2022/10/04 22:04:05;;;;;;;2.35;1.20;;;18.00;89.40;;;;;;10366200;28;20137;-44
2022/10/04 22:09:06;;;;;;;1.30;1.00;;;18.20;87.60;;;;;;10347620;28;20139;-40
2022/10/04 22:14:08;;;;;;;2.53;1.13;;;18.80;84.70;;;;;;10367971;28;20078;-43
2022/10/04 22:19:11;;;;;;;1.27;1.13;;;18.40;86.00;;;;;;10373997;28;20407;-42
2022/10/04 22:24:18;;;;;;;2.08;1.25;;;18.30;87.30;;;;;;10374825;28;20127;-41
2022/10/04 22:29:20;;;;;;;5.38;1.08;;;18.10;87.70;;;;;;10376362;28;20096;-38
2022/10/04 22:34:23;;;;;;;2.47;1.17;;;18.10;88.90;;;;;;10375569;28;20077;-47
2022/10/04 22:39:26;;;;;;;1.38;1.10;;;18.00;89.20;;;;;;10354956;28;20050;-40
2022/10/04 22:44:30;;;;;;;2.08;1.15;;;18.30;87.70;;;;;;10352546;28;20079;-40
2022/10/04 22:49:37;;;;;;;3.65;0.90;;;18.40;88.00;;;;;;10361927;28;20558;-41
2022/10/04 22:54:42;;;;;;;2.95;1.13;;;18.10;89.50;;;;;;10351900;28;20335;-41
2022/10/04 22:59:47;;;;;;;1.42;0.98;;;18.10;88.00;;;;;;10365052;28;20056;-39
2022/10/04 23:04:52;;;;;;;1.38;1.02;;;18.60;85.60;;;;;;10372507;28;20046;-45
2022/10/04 23:09:54;;;;;;;1.67;1.20;;;18.20;87.80;;;;;;10364281;28;20062;-39
2022/10/04 23:14:56;;;;;;;1.40;1.10;;;18.00;88.80;;;;;;10341081;28;20131;-40
2022/10/04 23:20:03;;;;;;;2.95;1.30;;;18.10;88.40;;;;;;10361997;28;20089;-38
2022/10/04 23:25:13;;;;;;;1.00;0.80;;;17.90;88.80;;;;;;10370002;28;20132;-39
2022/10/04 23:30:18;;;;;;;2.25;0.73;;;18.40;87.60;;;;;;10362586;28;20137;-40
2022/10/04 23:35:23;;;;;;;4.10;1.20;;;19.00;84.30;;;;;;10368235;28;20053;-40
2022/10/04 23:40:26;;;;;;;1.17;1.00;;;18.50;85.00;;;;;;10361772;28;20577;-40
2022/10/04 23:45:27;;;;;;;;;;;17.80;88.90;;;;;;10388865;28;20653;-39
2022/10/04 23:50:34;;;;;;;2.10;1.08;;;18.00;88.70;;;;;;10377226;28;20007;-39
2022/10/04 23:55:38;;;;;;;1.95;1.10;;;18.40;85.90;;;;;;10353230;28;20042;-42
